Time;durP1;ratioP1;P1;durP2;ratioP2;P2;SDS_P1;SDS_P2;PMS_P1;PMS_P2;Temp;Humidity;BMP_temperature;BMP_pressure;BME280_temperature;BME280_humidity;BME280_pressure;Samples;Min_cycle;Max_cycle;Signal;HPM_P1;HPM_P2
2022/04/22 00:03:17;;;;;;;21.60;20.20;;;;;;;10.71;100.00;101042.83;1870770;72;85445;-72
2022/04/22 00:09:01;;;;;;;24.00;22.60;;;;;;;10.47;100.00;101045.94;1803211;78;86316;-69
2022/04/22 00:14:45;;;;;;;23.67;22.17;;;;;;;10.33;100.00;101039.28;1804959;78;86455;-71
2022/04/22 00:20:29;;;;;;;24.20;22.60;;;;;;;10.36;100.00;101034.55;1859136;74;86726;-72
2022/04/22 00:26:18;;;;;;;24.97;23.40;;;;;;;10.43;100.00;101036.51;1985583;71;39695;-72
2022/04/22 00:32:03;;;;;;;25.20;23.70;;;;;;;10.36;100.00;101039.55;1874405;74;86655;-69
2022/04/22 00:37:49;;;;;;;24.50;23.00;;;;;;;10.48;100.00;101027.59;1883088;74;85481;-69
2022/04/22 00:43:42;;;;;;;25.23;23.63;;;;;;;10.36;100.00;101020.11;1880993;75;86227;-71
2022/04/22 00:49:27;;;;;;;26.10;24.50;;;;;;;10.59;100.00;101015.92;1870290;75;86601;-72
2022/04/22 00:55:12;;;;;;;25.63;23.93;;;;;;;10.45;100.00;100998.16;1980327;71;39707;-69
2022/04/22 01:00:55;;;;;;;24.30;22.93;;;;;;;10.34;100.00;100990.98;1821237;75;86303;-72
2022/04/22 01:12:42;;;;;;;26.27;24.40;;;;;;;10.28;100.00;100989.31;1884822;74;86607;-68
2022/04/22 01:18:26;;;;;;;26.63;24.67;;;;;;;10.31;100.00;100981.83;1801606;77;85431;-69
2022/04/22 01:24:14;;;;;;;28.00;26.13;;;;;;;10.22;100.00;100976.02;1948974;71;39676;-71
2022/04/22 01:30:00;;;;;;;27.57;25.83;;;;;;;10.35;100.00;100971.83;1826709;76;85482;-72
2022/04/22 01:35:46;;;;;;;28.23;26.33;;;;;;;10.14;100.00;100966.00;1885994;74;86557;-69
2022/04/22 01:41:30;;;;;;;28.47;26.70;;;;;;;10.18;100.00;100964.36;1867765;75;86317;-69
2022/04/22 01:47:14;;;;;;;29.53;27.60;;;;;;;10.13;100.00;100958.78;1985436;71;39608;-72
2022/04/22 01:53:03;;;;;;;30.97;28.87;;;;;;;10.08;100.00;100954.06;1840205;76;86067;-72
2022/04/22 01:58:46;;;;;;;32.57;30.30;;;;;;;10.03;100.00;100942.96;1801278;78;86298;-70
2022/04/22 02:04:30;;;;;;;33.03;30.90;;;;;;;9.95;100.00;100949.91;1805812;77;86274;-72
2022/04/22 02:10:14;;;;;;;34.10;32.03;;;;;;;10.08;100.00;100951.28;1984928;71;39592;-72
2022/04/22 02:15:58;;;;;;;37.60;34.97;;;;;;;10.10;100.00;100939.92;1828054;76;86299;-69
2022/04/22 02:21:42;;;;;;;37.57;35.07;;;;;;;9.97;100.00;100937.12;1885621;73;86417;-72
2022/04/22 02:33:29;;;;;;;43.13;40.30;;;;;;;10.10;100.00;100926.84;1806513;77;85343;-71
2022/04/22 02:39:13;;;;;;;43.67;40.97;;;;;;;10.01;100.00;100934.91;1975176;71;39788;-69
2022/04/22 02:45:27;;;;;;;46.50;43.37;;;;;;;10.11;100.00;100929.90;1828620;76;86330;-69
2022/04/22 02:51:11;;;;;;;48.37;45.40;;;;;;;10.17;100.00;100926.05;1982020;71;39543;-71
2022/04/22 02:56:55;;;;;;;48.87;45.67;;;;;;;10.16;100.00;100920.77;1796676;78;86282;-71
2022/04/22 03:02:39;;;;;;;51.50;48.20;;;;;;;10.11;100.00;100915.19;1884946;74;85639;-72
2022/04/22 03:08:24;;;;;;;53.23;50.03;;;;;;;10.11;100.00;100916.58;1862418;75;86289;-69
2022/04/22 03:14:09;;;;;;;55.43;51.83;;;;;;;10.02;100.00;100913.54;1981295;71;39660;-72
2022/04/22 03:19:53;;;;;;;59.50;55.83;;;;;;;9.86;100.00;100904.97;1846339;76;86670;-70
2022/04/22 03:25:37;;;;;;;62.47;58.57;;;;;;;9.81;100.00;100898.87;1890778;75;85495;-72
2022/04/22 03:31:20;;;;;;;63.40;59.60;;;;;;;9.83;100.00;100895.27;1911291;72;85993;-69
2022/04/22 03:37:04;;;;;;;61.57;57.77;;;;;;;9.73;100.00;100892.50;1984809;71;39683;-70
2022/04/22 03:42:48;;;;;;;65.90;61.40;;;;;;;9.77;100.00;100880.28;1887611;74;86086;-72
2022/04/22 03:48:32;;;;;;;64.00;59.90;;;;;;;9.84;100.00;100871.14;1849592;76;86353;-72
2022/04/22 03:54:22;;;;;;;62.23;58.17;;;;;;;9.83;100.00;100873.08;1819945;78;86529;-69
2022/04/22 04:00:02;;;;;;;65.73;61.53;;;;;;;9.84;100.00;100871.95;1802805;78;86416;-72
2022/04/22 04:05:49;;;;;;;64.43;60.43;;;;;;;10.05;100.00;100858.30;1800032;78;85551;-69
2022/04/22 04:17:39;;;;;;;68.63;64.03;;;;;;;10.02;100.00;100857.48;1888106;74;86943;-69
2022/04/22 04:23:25;;;;;;;67.03;62.70;;;;;;;10.05;100.00;100849.17;1803957;77;85660;-69
2022/04/22 04:29:09;;;;;;;66.57;62.37;;;;;;;10.07;100.00;100849.70;1986480;71;39691;-69
2022/04/22 04:34:53;;;;;;;68.30;63.87;;;;;;;10.02;100.00;100850.55;1975781;69;86484;-69
2022/04/22 04:40:37;;;;;;;66.87;62.50;;;;;;;10.15;100.00;100844.13;1831048;76;86187;-69
2022/04/22 04:46:21;;;;;;;64.97;60.77;;;;;;;10.26;100.00;100840.25;1936806;73;86497;-72
2022/04/22 04:52:07;;;;;;;66.83;62.43;;;;;;;10.32;100.00;100834.38;1985840;71;39709;-69
2022/04/22 04:57:50;;;;;;;67.80;63.33;;;;;;;10.33;100.00;100825.50;1893025;74;86345;-69
2022/04/22 05:03:34;;;;;;;69.83;65.00;;;;;;;10.28;100.00;100818.58;1889730;75;86325;-71
2022/04/22 05:09:19;;;;;;;67.30;62.73;;;;;;;9.95;100.00;100813.95;1911255;72;86592;-69
2022/04/22 05:15:08;;;;;;;68.13;63.63;;;;;;;9.96;100.00;100813.40;1891043;74;86520;-71
2022/04/22 05:20:49;;;;;;;68.43;63.83;;;;;;;10.01;100.00;100811.42;1876173;74;86156;-72
2022/04/22 05:26:33;;;;;;;70.47;65.90;;;;;;;10.27;100.00;100799.70;1883428;73;86366;-72
2022/04/22 05:32:37;;;;;;;68.93;64.03;;;;;;;10.44;100.00;100809.05;1915559;74;86782;-69
2022/04/22 05:38:24;;;;;;;70.20;65.50;;;;;;;10.43;100.00;100799.08;1912601;73;86606;-69
2022/04/22 05:44:11;;;;;;;70.83;66.03;;;;;;;10.34;100.00;100807.17;1978044;71;39635;-70
2022/04/22 05:49:55;;;;;;;71.80;67.00;;;;;;;10.46;100.00;100806.83;1823984;76;86544;-69
2022/04/22 05:55:43;;;;;;;72.70;67.60;;;;;;;10.37;100.00;100814.93;1903198;74;85543;-71
2022/04/22 06:01:26;;;;;;;73.57;67.87;;;;;;;10.52;100.00;100817.37;1862510;76;86516;-70
2022/04/22 06:07:13;;;;;;;71.00;65.90;;;;;;;10.72;100.00;100805.58;1980597;71;39664;-71
2022/04/22 06:12:58;;;;;;;72.93;67.80;;;;;;;10.84;100.00;100809.38;1873773;74;86038;-69
2022/04/22 06:18:42;;;;;;;77.57;72.20;;;;;;;10.93;100.00;100804.32;1906386;73;85593;-71
2022/04/22 06:24:26;;;;;;;78.23;72.37;;;;;;;11.08;100.00;100796.41;1799003;77;86583;-68
2022/04/22 06:30:13;;;;;;;78.43;72.73;;;;;;;11.08;100.00;100801.17;1947717;71;39671;-72
2022/04/22 06:36:03;;;;;;;76.90;71.53;;;;;;;11.29;100.00;100797.10;1825378;76;86467;-71
2022/04/22 06:47:52;;;;;;;74.60;69.37;;;;;;;11.41;100.00;100797.55;1815458;76;86376;-71
2022/04/22 06:53:38;;;;;;;73.17;67.80;;;;;;;11.69;100.00;100786.96;1820942;78;86775;-68
2022/04/22 06:59:24;;;;;;;73.27;67.97;;;;;;;12.12;100.00;100784.28;1911675;74;86619;-72
2022/04/22 07:05:12;;;;;;;77.80;72.47;;;;;;;12.52;100.00;100771.23;1985922;71;39551;-69
2022/04/22 07:10:59;;;;;;;76.60;70.80;;;;;;;12.37;100.00;100760.84;1881102;75;86204;-67
2022/04/22 07:16:48;;;;;;;73.27;68.13;;;;;;;12.30;100.00;100764.00;1889344;73;86654;-67
2022/04/22 07:22:35;;;;;;;73.13;67.70;;;;;;;12.67;100.00;100759.84;1850944;76;86011;-72
2022/04/22 07:25:10;;;;;;;73.80;68.57;;;;;;;12.56;100.00;100768.10;1779922;77;939155;-70
2022/04/22 07:30:57;;;;;;;76.47;70.53;;;;;;;12.64;100.00;100757.67;1840372;76;86079;-67
2022/04/22 07:36:43;;;;;;;77.63;72.23;;;;;;;12.55;100.00;100769.22;1885303;74;86414;-67
2022/04/22 07:42:30;;;;;;;76.93;71.53;;;;;;;12.30;100.00;100755.65;1806880;77;86757;-68
2022/04/22 07:48:15;;;;;;;78.20;72.73;;;;;;;12.31;100.00;100760.10;1984358;71;39634;-69
2022/04/22 07:54:01;;;;;;;73.07;67.73;;;;;;;12.24;100.00;100760.45;1845959;76;85841;-69
2022/04/22 07:59:45;;;;;;;74.73;69.43;;;;;;;12.44;100.00;100761.31;1808805;78;86317;-69
2022/04/22 08:05:29;;;;;;;72.00;66.93;;;;;;;12.53;100.00;100762.30;1861970;75;86629;-68
2022/04/22 08:11:14;;;;;;;70.67;65.30;;;;;;;12.71;100.00;100759.50;1977284;71;39723;-68
2022/04/22 08:16:59;;;;;;;70.17;65.13;;;;;;;12.93;100.00;100744.95;1841656;76;86871;-68
2022/04/22 08:22:45;;;;;;;66.53;61.70;;;;;;;13.64;100.00;100738.16;1838894;76;85569;-67
2022/04/22 08:28:30;;;;;;;63.53;59.03;;;;;;;14.02;100.00;100738.80;1875445;75;86559;-68
2022/04/22 08:34:16;;;;;;;65.67;61.07;;;;;;;13.93;100.00;100740.09;1985373;71;40461;-68
2022/04/22 08:40:01;;;;;;;70.40;65.67;;;;;;;13.66;100.00;100749.27;1823925;76;86647;-67
2022/04/22 08:45:50;;;;;;;64.87;60.87;;;;;;;13.62;100.00;100750.19;1801818;78;86855;-67
2022/04/22 08:51:36;;;;;;;62.30;58.40;;;;;;;13.56;100.00;100735.49;1866023;75;86554;-68
2022/04/22 08:57:23;;;;;;;60.17;56.43;;;;;;;13.51;100.00;100732.82;1939422;73;86074;-67
2022/04/22 09:03:09;;;;;;;57.37;53.80;;;;;;;13.42;100.00;100736.62;1986247;71;39572;-67
2022/04/22 09:08:55;;;;;;;55.73;52.07;;;;;;;13.56;100.00;100723.53;1848544;76;85447;-67
2022/04/22 09:14:46;;;;;;;56.03;52.67;;;;;;;13.69;100.00;100727.70;1887781;74;86809;-67
2022/04/22 09:20:33;;;;;;;58.00;54.40;;;;;;;13.61;100.00;100726.20;1861512;76;86313;-67
2022/04/22 09:26:24;;;;;;;59.43;55.63;;;;;;;13.42;100.00;100729.08;1912450;73;85621;-68
2022/04/22 09:32:14;;;;;;;59.10;55.43;;;;;;;13.39;100.00;100731.06;1977796;70;39749;-68
2022/04/22 09:44:06;;;;;;;51.33;48.07;;;;;;;13.42;100.00;100724.90;1985960;71;39527;-68
2022/04/22 09:49:51;;;;;;;48.77;45.93;;;;;;;13.48;100.00;100715.84;1831029;76;86682;-68
2022/04/22 09:59:23;;;;;;;49.83;46.93;;;;;;;13.68;100.00;100715.47;1974959;71;39620;-67
2022/04/22 10:05:12;;;;;;;48.83;45.70;;;;;;;13.97;100.00;100713.76;1986483;71;39629;-67
2022/04/22 10:14:13;;;;;;;57.97;54.47;;;;;;;13.66;100.00;100710.75;1979712;71;39619;-67
2022/04/22 10:20:01;;;;;;;55.60;52.20;;;;;;;13.49;100.00;100703.55;1842162;76;86591;-68
2022/04/22 10:25:47;;;;;;;52.03;48.97;;;;;;;13.61;100.00;100703.30;1807478;78;85359;-67
2022/04/22 10:31:32;;;;;;;54.27;51.10;;;;;;;13.72;100.00;100704.52;1806982;77;85600;-67
2022/04/22 10:37:25;;;;;;;54.17;50.93;;;;;;;13.58;100.00;100706.72;1909377;73;86574;-67
2022/04/22 10:43:10;;;;;;;54.27;51.03;;;;;;;13.58;100.00;100706.72;1954830;71;39685;-68
2022/04/22 10:49:13;;;;;;;52.93;49.80;;;;;;;13.69;100.00;100694.80;1848383;76;86388;-67
2022/04/22 10:55:18;;;;;;;49.10;46.03;;;;;;;14.01;100.00;100686.86;1921107;72;86369;-68
2022/04/22 11:01:04;;;;;;;48.17;45.37;;;;;;;14.18;100.00;100682.02;1976044;72;85214;-68
2022/04/22 11:06:49;;;;;;;47.93;44.93;;;;;;;14.27;100.00;100684.34;1893141;74;86504;-67
2022/04/22 11:12:54;;;;;;;43.90;41.33;;;;;;;14.36;100.00;100687.51;1885866;73;85963;-68
2022/04/22 11:19:26;;;;;;;42.20;39.60;;;;;;;14.82;100.00;100673.25;1803805;78;86322;-68
2022/04/22 11:25:13;;;;;;;39.13;36.63;;;;;;;15.00;100.00;100675.03;1949082;70;39692;-68
2022/04/22 11:31:00;;;;;;;39.07;36.77;;;;;;;14.86;100.00;100674.27;1892640;74;86271;-68
2022/04/22 11:36:50;;;;;;;36.50;34.10;;;;;;;14.98;100.00;100669.48;1886696;74;85694;-69
2022/04/22 11:42:43;;;;;;;30.03;28.27;;;;;;;15.26;100.00;100651.97;1876001;74;85514;-68
2022/04/22 11:48:31;;;;;;;30.43;28.57;;;;;;;15.56;100.00;100658.16;1798875;77;86680;-68
2022/04/22 11:51:04;;;;;;;29.23;27.57;;;;;;;15.65;100.00;100666.59;1754063;78;937910;-68
2022/04/22 11:56:50;;;;;;;29.70;27.83;;;;;;;15.76;100.00;100660.94;1904247;75;86142;-71
2022/04/22 12:08:54;;;;;;;28.17;26.27;;;;;;;15.52;100.00;100645.12;1893036;74;86198;-68
2022/04/22 12:14:39;;;;;;;25.83;24.13;;;;;;;15.49;100.00;100643.75;1898359;74;86677;-68
2022/04/22 12:20:25;;;;;;;25.23;23.80;;;;;;;15.43;100.00;100637.49;1913939;73;86428;-68
2022/04/22 12:22:58;;;;;;;24.67;22.97;;;;;;;15.38;100.00;100624.20;1836274;75;938798;-68
2022/04/22 12:29:01;;;;;;;22.93;21.63;;;;;;;15.29;100.00;100621.37;1908101;73;86264;-69
2022/04/22 12:34:46;;;;;;;22.63;21.30;;;;;;;15.28;100.00;100622.51;1797854;78;86574;-68
2022/04/22 12:40:29;;;;;;;22.13;20.67;;;;;;;15.23;100.00;100620.45;1806883;77;86734;-67
2022/04/22 12:43:19;;;;;;;22.67;21.37;;;;;;;15.11;100.00;100616.00;1765835;78;938895;-67
2022/04/22 12:55:26;;;;;;;19.00;17.83;;;;;;;15.60;100.00;100607.94;1816888;77;86768;-69
2022/04/22 13:01:21;;;;;;;19.17;17.70;;;;;;;15.75;100.00;100592.06;1975926;70;39577;-67
2022/04/22 13:07:12;;;;;;;16.60;15.60;;;;;;;16.47;100.00;100584.48;1986357;71;39485;-69
2022/04/22 13:12:57;;;;;;;15.50;14.63;;;;;;;16.08;100.00;100584.89;1971545;72;86734;-66
2022/04/22 13:18:42;;;;;;;16.10;15.00;;;;;;;16.03;100.00;100590.66;1868217;74;86732;-68
2022/04/22 13:24:28;;;;;;;15.33;14.53;;;;;;;15.97;100.00;100582.14;1863671;76;86071;-67
2022/04/22 13:30:14;;;;;;;14.23;13.30;;;;;;;16.45;100.00;100571.36;1953988;71;39582;-70
2022/04/22 13:36:01;;;;;;;13.63;12.93;;;;;;;16.17;100.00;100561.88;1845541;76;86575;-71
2022/04/22 13:41:45;;;;;;;13.20;12.37;;;;;;;16.05;100.00;100553.31;1802527;78;86338;-71
2022/04/22 13:53:31;;;;;;;12.70;12.00;;;;;;;15.97;100.00;100557.50;1806643;77;86565;-69
2022/04/22 13:59:16;;;;;;;12.53;11.73;;;;;;;16.10;100.00;100550.35;1977586;71;39609;-71
2022/04/22 14:05:01;;;;;;;12.00;11.30;;;;;;;16.01;100.00;100545.89;1837894;75;86482;-71
2022/04/22 14:10:45;;;;;;;11.63;10.93;;;;;;;16.06;100.00;100546.56;1799779;78;86581;-69
2022/04/22 14:16:30;;;;;;;11.33;10.73;;;;;;;16.20;100.00;100537.99;1801216;77;86489;-71
2022/04/22 14:22:14;;;;;;;12.10;11.40;;;;;;;16.41;100.00;100537.56;1976066;71;39645;-71
2022/04/22 14:27:58;;;;;;;12.27;11.50;;;;;;;16.27;100.00;100539.71;1849132;76;85465;-71
2022/04/22 14:33:43;;;;;;;11.13;10.63;;;;;;;16.30;100.00;100524.45;1871890;75;86414;-68
2022/04/22 14:39:27;;;;;;;11.63;11.03;;;;;;;16.25;100.00;100536.43;1860454;76;85377;-68
2022/04/22 14:45:12;;;;;;;12.30;11.60;;;;;;;16.08;100.00;100528.86;1975618;70;39685;-68
2022/04/22 14:50:57;;;;;;;12.00;11.40;;;;;;;15.91;100.00;100535.28;1847819;76;86566;-68
2022/04/22 14:56:42;;;;;;;12.47;11.40;;;;;;;15.92;100.00;100541.11;1893522;75;85361;-71
2022/04/22 15:02:24;;;;;;;13.40;12.70;;;;;;;16.03;100.00;100536.02;1866174;76;86751;-68
2022/04/22 15:08:11;;;;;;;13.20;12.30;;;;;;;15.89;100.00;100533.94;1984798;71;39584;-71
2022/04/22 15:13:56;;;;;;;12.17;11.47;;;;;;;15.61;100.00;100538.20;1841526;76;86424;-68
2022/04/22 15:25:43;;;;;;;12.90;12.20;;;;;;;15.44;100.00;100543.98;1872085;75;86281;-71
2022/04/22 15:31:27;;;;;;;13.17;12.37;;;;;;;15.38;100.00;100533.25;1804889;77;86180;-71
2022/04/22 15:37:12;;;;;;;12.90;12.10;;;;;;;15.45;100.00;100534.41;1973673;71;39485;-71
2022/04/22 15:42:59;;;;;;;12.93;11.97;;;;;;;15.39;100.00;100537.12;1827390;76;86563;-68
2022/04/22 15:48:46;;;;;;;13.10;12.30;;;;;;;15.28;100.00;100531.56;1800913;78;86316;-68
2022/04/22 15:54:28;;;;;;;13.27;12.43;;;;;;;15.38;100.00;100531.84;1806833;77;86790;-68
2022/04/22 16:00:13;;;;;;;13.60;12.80;;;;;;;15.37;100.00;100535.79;1982881;71;39558;-68
2022/04/22 16:05:57;;;;;;;13.27;12.50;;;;;;;15.34;100.00;100540.08;1881985;74;85649;-70
2022/04/22 16:17:45;;;;;;;14.13;13.20;;;;;;;15.39;100.00;100530.70;1824908;76;86290;-71
2022/04/22 16:23:30;;;;;;;14.60;13.50;;;;;;;15.37;100.00;100533.81;1801509;77;86226;-68
2022/04/22 16:29:15;;;;;;;14.10;13.17;;;;;;;15.32;100.00;100536.76;1978005;71;39639;-66
2022/04/22 16:34:59;;;;;;;14.37;13.47;;;;;;;15.36;100.00;100538.36;1828455;76;86379;-71
2022/04/22 16:40:44;;;;;;;14.57;13.60;;;;;;;15.37;100.00;100543.61;1886129;74;85751;-67
2022/04/22 16:46:30;;;;;;;14.43;13.63;;;;;;;15.41;100.00;100531.19;1806015;77;86351;-71
2022/04/22 16:52:14;;;;;;;15.00;14.00;;;;;;;15.42;100.00;100529.48;1980596;71;39587;-68
2022/04/22 16:57:57;;;;;;;15.93;14.73;;;;;;;15.40;100.00;100529.56;1892419;74;85613;-71
2022/04/22 17:03:42;;;;;;;15.33;14.23;;;;;;;15.41;100.00;100528.39;1862783;76;86633;-68
2022/04/22 17:09:27;;;;;;;14.93;14.00;;;;;;;15.28;100.00;100530.16;1808001;77;86550;-70
2022/04/22 17:12:01;;;;;;;15.38;14.38;;;;;;;15.26;100.00;100536.67;1730107;79;938858;-67
2022/04/22 17:23:46;;;;;;;15.27;14.27;;;;;;;15.25;100.00;100528.02;1801503;78;85330;-73
2022/04/22 17:29:30;;;;;;;15.53;14.10;;;;;;;15.20;100.00;100525.37;1863199;75;86286;-73
2022/04/22 17:35:14;;;;;;;14.73;13.83;;;;;;;15.17;100.00;100520.43;1980305;71;39736;-67
2022/04/22 17:40:58;;;;;;;14.90;13.97;;;;;;;15.13;100.00;100522.23;1845242;76;86517;-68
2022/04/22 17:46:42;;;;;;;15.63;14.50;;;;;;;15.13;100.00;100517.20;1887786;74;86569;-67
2022/04/22 17:52:27;;;;;;;15.27;14.27;;;;;;;15.07;100.00;100523.51;1801181;77;86545;-73
2022/04/22 17:58:13;;;;;;;14.27;13.33;;;;;;;15.07;100.00;100520.71;1938689;71;39630;-73
2022/04/22 18:03:58;;;;;;;14.37;13.27;;;;;;;15.04;100.00;100518.56;1840081;76;85666;-69
2022/04/22 18:09:45;;;;;;;13.30;12.40;;;;;;;14.95;100.00;100531.69;1904356;73;85823;-69
2022/04/22 18:21:33;;;;;;;12.77;12.07;;;;;;;14.83;100.00;100526.70;1801519;77;86621;-72
2022/04/22 18:27:19;;;;;;;13.00;12.00;;;;;;;14.82;100.00;100528.41;1914002;73;85419;-69
2022/04/22 18:33:05;;;;;;;13.27;12.23;;;;;;;14.77;100.00;100531.34;1986517;71;39747;-70
2022/04/22 18:38:50;;;;;;;12.00;11.30;;;;;;;14.81;100.00;100530.95;1890022;74;86635;-71
2022/04/22 18:44:34;;;;;;;12.43;11.63;;;;;;;14.74;100.00;100530.59;1882653;75;86382;-69
2022/04/22 18:50:20;;;;;;;11.80;11.00;;;;;;;14.61;100.00;100535.13;1908622;72;86451;-72
2022/04/22 18:56:06;;;;;;;11.63;10.80;;;;;;;14.64;100.00;100531.69;1973142;71;39657;-67
2022/04/22 19:01:52;;;;;;;11.30;10.40;;;;;;;14.48;100.00;100529.05;1836956;76;86280;-72
2022/04/22 19:07:37;;;;;;;12.03;11.10;;;;;;;14.39;100.00;100525.36;1865789;76;85967;-73
2022/04/22 19:13:24;;;;;;;11.00;10.30;;;;;;;14.37;100.00;100543.87;1924874;72;86682;-67
2022/04/22 19:19:09;;;;;;;10.40;9.70;;;;;;;14.22;100.00;100537.78;1981039;71;39619;-67
2022/04/22 19:24:55;;;;;;;10.97;10.17;;;;;;;14.13;100.00;100550.28;1959443;72;86635;-71
2022/04/22 19:30:47;;;;;;;10.37;9.77;;;;;;;14.13;100.00;100553.91;1801332;78;86417;-72
2022/04/22 19:42:51;;;;;;;10.90;10.10;;;;;;;13.89;100.00;100551.15;1824256;75;86061;-73
2022/04/22 19:48:39;;;;;;;11.20;10.50;;;;;;;13.90;100.00;100552.81;1888511;74;85741;-72
2022/04/22 19:54:23;;;;;;;11.60;10.87;;;;;;;13.72;100.00;100545.41;1919357;74;86653;-68
2022/04/22 20:00:08;;;;;;;11.23;10.50;;;;;;;13.68;100.00;100547.44;1984470;71;39466;-73
2022/04/22 20:05:55;;;;;;;10.57;9.97;;;;;;;13.62;100.00;100550.06;1836680;76;86213;-73
2022/04/22 20:11:39;;;;;;;11.43;10.53;;;;;;;13.64;100.00;100552.56;1883073;74;85548;-72
2022/04/22 20:17:23;;;;;;;11.53;10.73;;;;;;;13.47;100.00;100556.56;1911020;72;85746;-69
2022/04/22 20:23:10;;;;;;;12.10;11.30;;;;;;;13.45;100.00;100548.49;1984990;71;39574;-69
2022/04/22 20:28:54;;;;;;;12.87;11.83;;;;;;;13.42;100.00;100541.32;1825215;76;86649;-68
2022/04/22 20:40:43;;;;;;;12.70;11.80;;;;;;;13.21;100.00;100557.66;1875070;74;86467;-72
2022/04/22 20:46:27;;;;;;;12.87;11.80;;;;;;;13.19;100.00;100550.16;1866100;76;86427;-73
2022/04/22 20:52:11;;;;;;;13.10;12.03;;;;;;;13.15;100.00;100551.91;1976358;71;39505;-72
2022/04/22 20:57:54;;;;;;;12.90;12.00;;;;;;;12.98;100.00;100547.48;1958958;72;86353;-72
2022/04/22 21:03:42;;;;;;;13.10;12.17;;;;;;;12.83;100.00;100554.19;1908347;73;86669;-71
2022/04/22 21:09:27;;;;;;;13.20;12.17;;;;;;;12.83;100.00;100551.41;1804793;77;86499;-72
2022/04/22 21:15:13;;;;;;;14.50;13.30;;;;;;;12.78;100.00;100548.14;1985052;71;40269;-72
2022/04/22 21:20:57;;;;;;;14.87;13.77;;;;;;;12.70;100.00;100548.03;1891515;74;86241;-71
2022/04/22 21:26:41;;;;;;;15.07;13.87;;;;;;;12.62;100.00;100555.11;1870370;74;86714;-67
2022/04/22 21:32:26;;;;;;;14.67;13.70;;;;;;;12.50;100.00;100555.33;1864851;76;86622;-67
2022/04/22 21:38:11;;;;;;;15.17;14.20;;;;;;;12.38;100.00;100556.38;1984371;70;39687;-67
2022/04/22 21:43:57;;;;;;;16.00;14.80;;;;;;;12.36;100.00;100552.53;1883461;75;86390;-72
2022/04/22 21:49:41;;;;;;;16.90;15.87;;;;;;;12.19;100.00;100553.66;1883986;73;86401;-67
2022/04/22 21:55:27;;;;;;;17.60;16.40;;;;;;;12.21;100.00;100552.20;1819401;77;86678;-73
2022/04/22 22:01:10;;;;;;;18.97;17.63;;;;;;;12.05;100.00;100556.93;1983976;71;39742;-71
2022/04/22 22:06:56;;;;;;;20.17;18.57;;;;;;;12.00;100.00;100548.66;1837112;76;86662;-72
2022/04/22 22:12:42;;;;;;;22.20;20.70;;;;;;;11.86;100.00;100543.02;1869135;74;86675;-68
2022/04/22 22:18:26;;;;;;;23.20;21.70;;;;;;;11.82;100.00;100545.58;1801524;77;86745;-72
2022/04/22 22:24:12;;;;;;;25.43;23.57;;;;;;;11.70;100.00;100542.39;1976752;71;39766;-73
2022/04/22 22:29:57;;;;;;;27.27;25.53;;;;;;;11.58;100.00;100535.05;1838125;76;86673;-67
2022/04/22 22:35:42;;;;;;;30.97;28.63;;;;;;;11.48;100.00;100536.58;1885790;74;85996;-72
2022/04/22 22:41:27;;;;;;;32.43;30.23;;;;;;;11.46;100.00;100530.50;1808085;77;86434;-68
2022/04/22 22:47:12;;;;;;;36.60;34.30;;;;;;;11.20;100.00;100523.05;1977827;71;39728;-67
2022/04/22 22:52:56;;;;;;;41.20;38.50;;;;;;;11.13;100.00;100525.91;1831213;76;85960;-67
2022/04/22 22:58:39;;;;;;;43.23;40.37;;;;;;;11.26;100.00;100526.58;1872150;75;86538;-68
2022/04/22 23:04:23;;;;;;;47.93;44.83;;;;;;;11.19;100.00;100526.95;1920776;74;86587;-73
2022/04/22 23:10:11;;;;;;;52.40;49.30;;;;;;;11.07;100.00;100525.72;1981014;71;39671;-68
2022/04/22 23:15:58;;;;;;;56.80;52.90;;;;;;;10.96;100.00;100525.83;1841398;76;86528;-72
2022/04/22 23:21:42;;;;;;;59.63;56.17;;;;;;;10.90;100.00;100524.25;1883584;73;86352;-73
2022/04/22 23:27:27;;;;;;;63.23;59.00;;;;;;;10.94;100.00;100514.20;1808627;77;86002;-72
2022/04/22 23:33:11;;;;;;;65.17;61.20;;;;;;;10.97;100.00;100515.55;1985291;71;39712;-73
2022/04/22 23:38:55;;;;;;;66.27;62.07;;;;;;;10.94;100.00;100508.64;1816023;76;86657;-68
2022/04/22 23:44:41;;;;;;;66.57;62.27;;;;;;;10.99;100.00;100505.53;1848813;75;86614;-71
2022/04/22 23:50:25;;;;;;;66.77;62.03;;;;;;;10.93;100.00;100499.20;1866940;76;85626;-68
2022/04/22 23:56:10;;;;;;;68.33;63.73;;;;;;;11.00;100.00;100498.27;1958935;71;39626;-68
